< < Back
Terminal Aerodrome Forecast


Current Version              Previous Versions:   1  2  3  4  5  6  7  8  9  

Terminal Aerodrome Forecast

060
FTUS42 KFFC 020500 RRA
TAFPDK
TAF
KPDK 020543Z 0206/0306 00000KT P6SM SCT150 BKN250
     FM021400 VRB03KT P6SM SCT035 SCT150
     FM021800 27005KT P6SM SCT050 SCT150 PROB30 0219/0223 VRB15G30KT
      5SM TSRA BKN045CB
     FM030100 00000KT P6SM FEW050 BKN120=

Latest METAR

289
SAUS70 KWBC 020900 RRO
MTRPDK
METAR KPDK 020853Z AUTO 00000KT 9SM CLR 22/20 A3009 RMK AO2 SLP172
T02170200 55002 TSNO


USA.gov is the U.S. government's official web portal to all federal, state and local government web resources and services.